Time;durP1;ratioP1;P1;durP2;ratioP2;P2;SDS_P1;SDS_P2;PMS_P1;PMS_P2;Temp;Humidity;BMP_temperature;BMP_pressure;BME280_temperature;BME280_humidity;BME280_pressure;Samples;Min_cycle;Max_cycle;Signal;HPM_P1;HPM_P2
2022/10/08 00:00:43;;;;;;;23.87;21.87;;;16.20;90.60;;;;;;5050022;28;20542;-78
2022/10/08 00:03:10;;;;;;;24.27;22.23;;;16.20;90.70;;;;;;5041488;28;20833;-79
2022/10/08 00:05:37;;;;;;;22.80;21.23;;;16.20;90.70;;;;;;5031761;28;20464;-79
2022/10/08 00:08:04;;;;;;;22.87;21.23;;;16.20;90.80;;;;;;5045185;28;20473;-79
2022/10/08 00:10:32;;;;;;;24.73;22.10;;;16.10;90.80;;;;;;5038613;28;20460;-78
2022/10/08 00:13:00;;;;;;;25.23;23.47;;;16.10;90.80;;;;;;5041836;28;20470;-79
2022/10/08 00:15:27;;;;;;;24.83;23.07;;;16.10;90.70;;;;;;5038623;28;21068;-78
2022/10/08 00:17:54;;;;;;;25.87;23.90;;;16.10;90.80;;;;;;5042292;28;20478;-79
2022/10/08 00:20:22;;;;;;;23.07;21.37;;;16.10;90.90;;;;;;5044373;28;20470;-78
2022/10/08 00:22:49;;;;;;;24.60;22.70;;;16.00;90.90;;;;;;5037387;28;20459;-78
2022/10/08 00:25:16;;;;;;;23.50;21.70;;;16.00;90.80;;;;;;5031196;28;20466;-78
2022/10/08 00:27:44;;;;;;;23.43;21.73;;;15.90;91.00;;;;;;5047098;28;20462;-79
2022/10/08 00:30:12;;;;;;;24.20;22.40;;;15.80;91.40;;;;;;5040642;28;20483;-78
2022/10/08 00:32:39;;;;;;;25.10;23.20;;;15.80;91.50;;;;;;5037270;28;20461;-78
2022/10/08 00:35:07;;;;;;;24.30;22.33;;;15.80;91.40;;;;;;5035757;28;20486;-79
2022/10/08 00:37:33;;;;;;;23.50;21.80;;;15.80;91.50;;;;;;5034450;28;20474;-78
2022/10/08 00:40:00;;;;;;;23.63;21.60;;;15.60;91.90;;;;;;5044687;28;20485;-78
2022/10/08 00:42:27;;;;;;;24.50;22.50;;;15.50;92.30;;;;;;5032379;28;20542;-79
2022/10/08 00:44:57;;;;;;;23.43;21.80;;;15.50;92.50;;;;;;5032264;28;20511;-78
2022/10/08 00:47:35;;;;;;;23.30;21.80;;;15.50;92.50;;;;;;5036840;28;20547;-78
2022/10/08 00:50:05;;;;;;;24.13;22.27;;;15.50;92.30;;;;;;5027924;28;20503;-78
2022/10/08 00:52:35;;;;;;;23.57;21.60;;;15.50;92.40;;;;;;5032366;28;20458;-78
2022/10/08 00:55:05;;;;;;;25.60;23.63;;;15.40;92.40;;;;;;5043277;28;20566;-78
2022/10/08 00:57:34;;;;;;;24.33;22.33;;;15.40;92.60;;;;;;5046383;28;20461;-78
2022/10/08 01:00:05;;;;;;;23.13;21.60;;;15.40;92.80;;;;;;5042252;28;20455;-78
2022/10/08 01:02:32;;;;;;;22.10;20.43;;;15.30;92.80;;;;;;5039259;28;21016;-78
2022/10/08 01:04:59;;;;;;;23.50;21.97;;;15.30;93.00;;;;;;5040248;28;20482;-78
2022/10/08 01:07:32;;;;;;;22.47;20.97;;;15.30;93.00;;;;;;5036444;28;20465;-78
2022/10/08 01:10:06;;;;;;;23.30;21.60;;;15.30;93.10;;;;;;5037109;28;20521;-78
2022/10/08 01:12:43;;;;;;;23.60;21.40;;;15.40;93.00;;;;;;5033200;28;20826;-78
2022/10/08 01:15:21;;;;;;;24.27;22.47;;;15.30;93.00;;;;;;5030648;28;20822;-78
2022/10/08 01:18:02;;;;;;;24.03;22.07;;;15.30;93.20;;;;;;5029146;28;20464;-78
2022/10/08 01:20:38;;;;;;;23.87;22.17;;;15.30;93.30;;;;;;5038564;28;20818;-78
2022/10/08 01:23:37;;;;;;;24.40;21.80;;;15.30;93.30;;;;;;5029780;28;20489;-78
2022/10/08 01:26:22;;;;;;;23.97;21.83;;;15.30;93.30;;;;;;5048506;28;20546;-78
2022/10/08 01:28:55;;;;;;;23.47;21.67;;;15.30;93.30;;;;;;5041484;28;20952;-78
2022/10/08 01:31:26;;;;;;;23.73;21.50;;;15.30;93.20;;;;;;5041741;28;20463;-78
2022/10/08 01:33:58;;;;;;;23.00;21.40;;;15.40;93.00;;;;;;5052210;28;20554;-78
2022/10/08 01:36:27;;;;;;;25.07;23.10;;;15.30;93.00;;;;;;5049950;28;20459;-78
2022/10/08 01:38:58;;;;;;;24.03;22.23;;;15.30;93.20;;;;;;5049516;28;20573;-78
2022/10/08 01:41:28;;;;;;;23.53;22.00;;;15.30;93.20;;;;;;5048705;28;20529;-78
2022/10/08 01:44:01;;;;;;;23.50;21.90;;;15.30;93.00;;;;;;5044035;28;20506;-78
2022/10/08 01:46:31;;;;;;;23.33;21.63;;;15.30;92.90;;;;;;5044144;28;20545;-78
2022/10/08 01:49:03;;;;;;;23.33;21.53;;;15.30;93.00;;;;;;5045487;28;20460;-78
2022/10/08 01:51:34;;;;;;;22.30;20.60;;;15.40;93.00;;;;;;5038549;28;20459;-78
2022/10/08 01:54:06;;;;;;;21.60;19.80;;;15.30;93.20;;;;;;5034682;28;20984;-78
2022/10/08 01:56:34;;;;;;;22.60;20.57;;;15.30;93.30;;;;;;5038385;28;20910;-78
2022/10/08 01:59:08;;;;;;;22.13;20.57;;;15.30;93.30;;;;;;5039777;28;20465;-78
2022/10/08 02:01:41;;;;;;;22.33;20.83;;;15.30;93.40;;;;;;5040021;28;20485;-78
2022/10/08 02:06:56;;;;;;;20.97;19.33;;;15.30;93.10;;;;;;5043083;28;20454;-78
2022/10/08 02:09:24;;;;;;;21.43;19.83;;;15.30;93.30;;;;;;5041987;28;20452;-78
2022/10/08 02:11:51;;;;;;;22.30;20.70;;;15.30;93.30;;;;;;5040100;28;20833;-78
2022/10/08 02:14:23;;;;;;;21.73;20.30;;;15.30;93.30;;;;;;5048019;28;20472;-78
2022/10/08 02:16:54;;;;;;;22.93;21.20;;;15.40;93.20;;;;;;5042978;28;20489;-78
2022/10/08 02:19:29;;;;;;;27.20;25.33;;;15.30;93.40;;;;;;5046880;28;21314;-78
2022/10/08 02:21:58;;;;;;;21.40;19.73;;;15.40;93.30;;;;;;5043879;28;20482;-77
2022/10/08 02:24:31;;;;;;;20.33;19.00;;;15.40;93.20;;;;;;5049150;28;20862;-78
2022/10/08 02:27:03;;;;;;;22.10;20.20;;;15.40;93.10;;;;;;5038819;28;20546;-78
2022/10/08 02:29:37;;;;;;;21.40;19.90;;;15.40;93.20;;;;;;5034589;28;20451;-78
2022/10/08 02:32:10;;;;;;;22.03;20.50;;;15.40;93.20;;;;;;5041279;28;20983;-78
2022/10/08 02:34:41;;;;;;;20.63;19.03;;;15.50;93.00;;;;;;5046049;28;20491;-77
2022/10/08 02:37:11;;;;;;;21.20;19.60;;;15.50;92.70;;;;;;5050996;28;20459;-77
2022/10/08 02:39:42;;;;;;;21.03;19.73;;;15.50;92.70;;;;;;5058072;28;20498;-77
2022/10/08 02:42:14;;;;;;;22.87;21.27;;;15.60;92.50;;;;;;5058766;28;20551;-77
2022/10/08 02:44:47;;;;;;;33.97;31.80;;;15.50;92.50;;;;;;5060045;28;20888;-78
2022/10/08 02:47:17;;;;;;;23.53;21.13;;;15.50;92.40;;;;;;5037738;28;20828;-78
2022/10/08 02:49:50;;;;;;;21.30;19.67;;;15.50;92.50;;;;;;5042730;28;21024;-77
2022/10/08 02:52:19;;;;;;;21.50;20.00;;;15.50;92.50;;;;;;5042129;28;20458;-78
2022/10/08 02:54:50;;;;;;;20.50;18.73;;;15.60;92.30;;;;;;5041237;28;20563;-77
2022/10/08 02:57:21;;;;;;;21.17;19.40;;;15.50;92.20;;;;;;5032708;28;20462;-78
2022/10/08 02:59:50;;;;;;;20.23;18.70;;;15.50;92.20;;;;;;5033308;28;20973;-77
2022/10/08 03:02:22;;;;;;;22.10;20.30;;;15.50;92.40;;;;;;5035633;28;20476;-78
2022/10/08 03:04:54;;;;;;;21.03;19.50;;;15.50;92.40;;;;;;5043779;28;20473;-77
2022/10/08 03:07:23;;;;;;;20.40;18.80;;;15.40;92.60;;;;;;5038619;28;20469;-78
2022/10/08 03:09:51;;;;;;;19.30;17.80;;;15.40;92.80;;;;;;5039513;28;20459;-78
2022/10/08 03:12:18;;;;;;;20.70;19.30;;;15.40;92.90;;;;;;5031693;28;20485;-78
2022/10/08 03:14:51;;;;;;;20.77;19.13;;;15.30;93.10;;;;;;5038676;28;20557;-77
2022/10/08 03:17:22;;;;;;;21.47;20.00;;;15.30;93.30;;;;;;5039337;28;20476;-77
2022/10/08 03:19:49;;;;;;;24.20;22.40;;;15.20;93.30;;;;;;5030898;28;20463;-78
2022/10/08 03:22:16;;;;;;;22.10;20.60;;;15.20;93.40;;;;;;5036353;28;20485;-78
2022/10/08 03:24:43;;;;;;;22.80;20.90;;;15.20;93.70;;;;;;5041664;28;20487;-77
2022/10/08 03:27:10;;;;;;;19.40;18.10;;;15.20;93.60;;;;;;5032898;28;20559;-77
2022/10/08 03:29:37;;;;;;;20.83;19.33;;;15.20;93.50;;;;;;5029687;28;20542;-78
2022/10/08 03:32:05;;;;;;;22.27;20.53;;;15.20;93.50;;;;;;5036199;28;20999;-78
2022/10/08 03:34:32;;;;;;;26.70;24.83;;;15.20;93.60;;;;;;5046240;28;20992;-78
2022/10/08 03:36:59;;;;;;;22.20;20.50;;;15.20;93.50;;;;;;5041562;28;20462;-78
2022/10/08 03:39:26;;;;;;;22.73;20.20;;;15.20;93.60;;;;;;5049712;28;20538;-78
2022/10/08 03:41:53;;;;;;;21.00;19.60;;;15.20;93.60;;;;;;5045244;28;20852;-78
2022/10/08 03:44:20;;;;;;;21.27;19.63;;;15.20;93.60;;;;;;5047062;28;21074;-78
2022/10/08 03:46:47;;;;;;;19.03;17.83;;;15.30;93.60;;;;;;5036258;28;20471;-78
2022/10/08 03:49:15;;;;;;;22.70;20.70;;;15.30;93.50;;;;;;5041681;28;20546;-78
2022/10/08 03:51:42;;;;;;;22.07;20.57;;;15.30;93.40;;;;;;5035015;28;20459;-78
2022/10/08 03:54:09;;;;;;;21.50;19.90;;;15.30;93.00;;;;;;5042535;28;20913;-78
2022/10/08 03:56:36;;;;;;;21.57;20.03;;;15.30;93.10;;;;;;5043603;28;20467;-78
2022/10/08 03:59:03;;;;;;;21.73;19.87;;;15.20;93.20;;;;;;5032914;28;21017;-78
2022/10/08 04:01:30;;;;;;;22.10;20.50;;;15.20;93.50;;;;;;5029475;28;20499;-78
2022/10/08 04:03:57;;;;;;;24.03;22.33;;;15.20;93.30;;;;;;5041253;28;20474;-78
2022/10/08 04:06:25;;;;;;;21.00;19.70;;;15.20;93.30;;;;;;5034153;28;20543;-78
2022/10/08 04:08:59;;;;;;;22.83;21.13;;;15.20;93.20;;;;;;5049984;28;20470;-78
2022/10/08 04:11:27;;;;;;;21.60;20.00;;;15.10;93.60;;;;;;5048055;28;20541;-78
2022/10/08 04:13:54;;;;;;;21.83;20.20;;;15.20;93.60;;;;;;5040296;28;20829;-78
2022/10/08 04:16:21;;;;;;;23.70;21.77;;;15.20;93.50;;;;;;5045658;28;20465;-78
2022/10/08 04:18:48;;;;;;;23.23;21.63;;;15.20;93.50;;;;;;5039642;28;20467;-78
2022/10/08 04:21:16;;;;;;;20.67;19.37;;;15.30;93.40;;;;;;5032260;28;20447;-78
2022/10/08 04:23:48;;;;;;;30.60;28.80;;;15.30;93.20;;;;;;5040719;28;20562;-78
2022/10/08 04:26:15;;;;;;;21.97;20.27;;;15.30;93.20;;;;;;5045254;28;20470;-78
2022/10/08 04:28:44;;;;;;;22.40;20.53;;;15.30;93.20;;;;;;5044134;28;20561;-78
2022/10/08 04:31:15;;;;;;;30.70;28.70;;;15.40;93.10;;;;;;5034899;28;20459;-78
2022/10/08 04:33:42;;;;;;;22.53;21.03;;;15.40;93.00;;;;;;5044334;28;20482;-78
2022/10/08 04:36:11;;;;;;;20.53;19.10;;;15.40;93.00;;;;;;5042556;28;20458;-78
2022/10/08 04:38:38;;;;;;;21.33;19.53;;;15.40;93.10;;;;;;5033647;28;20474;-78
2022/10/08 04:41:08;;;;;;;26.97;25.33;;;15.40;93.10;;;;;;5041749;28;20538;-78
2022/10/08 04:43:36;;;;;;;21.67;20.20;;;15.40;93.20;;;;;;5041915;28;20558;-78
2022/10/08 04:46:03;;;;;;;20.80;19.23;;;15.40;93.10;;;;;;5041723;28;20455;-78
2022/10/08 04:48:30;;;;;;;22.90;21.40;;;15.40;92.90;;;;;;5047653;28;20455;-78
2022/10/08 04:50:58;;;;;;;19.53;18.23;;;15.40;92.70;;;;;;5038082;28;20983;-78
2022/10/08 04:53:25;;;;;;;32.60;30.60;;;15.40;92.70;;;;;;5046712;28;20992;-78
2022/10/08 04:55:52;;;;;;;30.97;28.90;;;15.40;92.80;;;;;;5036317;28;20464;-78
2022/10/08 04:58:22;;;;;;;35.80;33.20;;;15.30;93.00;;;;;;5042060;28;20535;-78
2022/10/08 05:00:49;;;;;;;20.87;19.37;;;15.40;92.90;;;;;;5037374;28;20838;-78
2022/10/08 05:03:16;;;;;;;20.57;18.80;;;15.40;92.80;;;;;;5039647;28;20972;-78
2022/10/08 05:05:44;;;;;;;21.70;20.20;;;15.40;92.90;;;;;;5034287;28;20550;-78
2022/10/08 05:08:12;;;;;;;21.00;19.37;;;15.40;92.70;;;;;;5048608;28;20932;-78
2022/10/08 05:10:39;;;;;;;25.07;23.13;;;15.30;92.80;;;;;;5047091;28;20490;-78
2022/10/08 05:13:06;;;;;;;21.00;19.50;;;15.20;93.20;;;;;;5049954;28;21199;-78
2022/10/08 05:15:35;;;;;;;25.13;23.53;;;15.20;93.30;;;;;;5060670;28;20459;-77
2022/10/08 05:18:01;;;;;;;21.90;20.27;;;15.20;93.50;;;;;;5064410;28;20532;-77
2022/10/08 05:20:28;;;;;;;22.20;20.60;;;15.10;93.60;;;;;;5049717;28;20456;-79
2022/10/08 05:22:55;;;;;;;23.07;20.93;;;15.10;93.60;;;;;;5043155;28;20506;-76
2022/10/08 05:25:22;;;;;;;26.03;24.33;;;15.10;93.60;;;;;;5038337;28;20464;-80
2022/10/08 05:27:49;;;;;;;22.17;20.60;;;15.00;93.70;;;;;;5046095;28;20450;-80
2022/10/08 05:30:16;;;;;;;21.90;19.90;;;14.90;94.10;;;;;;5054099;28;20478;-81
2022/10/08 05:32:44;;;;;;;35.43;33.40;;;14.90;94.10;;;;;;5063025;28;20534;-81
2022/10/08 05:35:11;;;;;;;20.60;19.10;;;14.90;94.20;;;;;;5054994;28;21018;-80
2022/10/08 05:37:38;;;;;;;21.90;20.30;;;14.90;94.30;;;;;;5046326;28;20473;-80
2022/10/08 05:40:06;;;;;;;21.43;19.70;;;14.80;94.50;;;;;;5042240;28;20539;-80
2022/10/08 05:42:33;;;;;;;21.00;19.50;;;14.80;94.50;;;;;;5039701;28;20560;-80
2022/10/08 05:45:00;;;;;;;26.87;24.90;;;14.70;94.50;;;;;;5040238;28;21361;-80
2022/10/08 05:47:27;;;;;;;23.77;22.07;;;14.70;94.70;;;;;;5044029;28;20471;-80
2022/10/08 05:49:55;;;;;;;28.23;25.93;;;14.70;94.70;;;;;;5045086;28;20519;-80
2022/10/08 05:52:22;;;;;;;30.20;28.10;;;14.60;94.90;;;;;;5038394;28;20446;-80
2022/10/08 05:54:49;;;;;;;22.03;20.53;;;14.60;94.90;;;;;;5042821;28;20948;-80
2022/10/08 05:57:15;;;;;;;20.63;19.23;;;14.50;95.00;;;;;;5051465;28;20489;-80
2022/10/08 05:59:42;;;;;;;27.87;26.00;;;14.60;95.20;;;;;;5045269;28;20527;-80
2022/10/08 06:02:10;;;;;;;23.13;21.33;;;14.60;94.90;;;;;;5038749;28;20507;-80
2022/10/08 06:04:37;;;;;;;25.57;23.73;;;14.60;94.90;;;;;;5059534;28;20601;-80
2022/10/08 06:07:07;;;;;;;21.23;19.50;;;14.60;94.80;;;;;;5046104;28;20554;-82
2022/10/08 06:09:34;;;;;;;21.00;19.50;;;14.60;94.90;;;;;;5050263;28;20539;-80
2022/10/08 06:12:01;;;;;;;21.43;19.80;;;14.60;94.90;;;;;;5045160;28;22467;-80
2022/10/08 06:14:27;;;;;;;22.10;20.40;;;14.70;94.60;;;;;;5042305;28;20476;-80
2022/10/08 06:16:54;;;;;;;23.50;21.77;;;14.70;94.30;;;;;;5047700;28;20558;-79
2022/10/08 06:19:21;;;;;;;20.10;18.20;;;14.70;94.40;;;;;;5040923;28;20470;-80
2022/10/08 06:21:49;;;;;;;22.60;20.83;;;14.70;94.30;;;;;;5048561;28;20459;-80
2022/10/08 06:24:20;;;;;;;21.10;19.50;;;14.70;94.00;;;;;;5051386;28;20491;-80
2022/10/08 06:26:47;;;;;;;21.67;20.27;;;14.80;94.10;;;;;;5047900;28;20546;-79
2022/10/08 06:29:16;;;;;;;23.33;21.83;;;14.80;93.60;;;;;;5039264;28;20534;-79
2022/10/08 06:31:43;;;;;;;26.37;24.50;;;14.80;93.80;;;;;;5043305;28;20451;-79
2022/10/08 06:34:10;;;;;;;23.73;21.80;;;14.90;93.50;;;;;;5044250;28;20471;-78
2022/10/08 06:36:37;;;;;;;22.17;20.60;;;14.90;93.00;;;;;;5047229;28;20542;-79
2022/10/08 06:39:06;;;;;;;22.27;20.50;;;14.90;93.20;;;;;;5048293;28;20491;-78
2022/10/08 06:41:34;;;;;;;33.27;30.80;;;14.90;93.10;;;;;;5038331;28;20546;-79
2022/10/08 06:44:02;;;;;;;34.50;32.30;;;15.00;92.20;;;;;;5059002;28;20999;-79
2022/10/08 06:46:31;;;;;;;23.87;21.90;;;15.10;92.10;;;;;;5043113;28;21888;-77
2022/10/08 06:48:59;;;;;;;23.30;21.70;;;15.10;92.00;;;;;;5045477;28;20459;-83
2022/10/08 06:51:26;;;;;;;21.57;19.60;;;15.10;91.60;;;;;;5053096;28;20461;-79
2022/10/08 06:53:55;;;;;;;21.37;19.67;;;15.20;91.40;;;;;;5048161;28;20462;-81
2022/10/08 06:56:24;;;;;;;23.50;21.60;;;15.20;91.60;;;;;;5035297;28;20456;-81
2022/10/08 06:58:53;;;;;;;35.53;33.47;;;15.30;91.60;;;;;;5048061;28;20499;-78
2022/10/08 07:01:21;;;;;;;28.03;26.17;;;15.40;91.00;;;;;;5039529;28;20487;-79
2022/10/08 07:03:50;;;;;;;32.00;29.80;;;15.40;90.70;;;;;;5040158;28;20523;-80
2022/10/08 07:06:17;;;;;;;22.07;20.50;;;15.50;90.80;;;;;;5051388;28;20944;-79
2022/10/08 07:08:44;;;;;;;31.13;29.20;;;15.60;90.40;;;;;;5048448;28;20583;-80
2022/10/08 07:11:13;;;;;;;28.73;26.13;;;15.70;89.60;;;;;;5029366;28;20541;-79
2022/10/08 07:13:40;;;;;;;24.07;22.17;;;15.80;89.40;;;;;;5043345;28;20568;-79
2022/10/08 07:16:10;;;;;;;24.73;22.83;;;15.80;89.20;;;;;;5036142;28;20468;-77
2022/10/08 07:18:38;;;;;;;28.50;26.30;;;15.80;89.10;;;;;;5036607;28;20474;-77
2022/10/08 07:21:07;;;;;;;23.60;21.90;;;16.00;88.70;;;;;;5044030;28;20581;-78
2022/10/08 07:23:34;;;;;;;24.90;22.73;;;16.20;88.20;;;;;;5039083;28;20491;-79
2022/10/08 07:26:02;;;;;;;32.87;30.77;;;16.20;87.00;;;;;;5031876;28;20522;-79
2022/10/08 07:28:33;;;;;;;28.63;26.73;;;16.30;86.90;;;;;;5044245;28;20539;-79
2022/10/08 07:31:04;;;;;;;26.30;24.20;;;16.50;85.80;;;;;;5040770;28;20545;-80
2022/10/08 07:33:32;;;;;;;27.20;25.30;;;16.50;85.70;;;;;;5032345;28;20499;-78
2022/10/08 07:36:07;;;;;;;35.43;32.90;;;16.70;85.40;;;;;;5041984;28;20451;-78
2022/10/08 07:38:34;;;;;;;32.87;30.97;;;16.90;84.00;;;;;;5031923;28;20554;-78
2022/10/08 07:41:01;;;;;;;39.93;36.80;;;16.90;81.30;;;;;;5035051;28;20459;-79
2022/10/08 07:43:28;;;;;;;32.20;30.27;;;16.80;80.20;;;;;;5036791;28;20490;-79
2022/10/08 07:45:58;;;;;;;40.63;38.57;;;16.80;79.80;;;;;;5039322;28;20814;-78
2022/10/08 07:48:25;;;;;;;41.90;39.43;;;16.90;77.80;;;;;;5039432;28;20958;-80
2022/10/08 07:50:54;;;;;;;27.70;26.10;;;16.90;77.30;;;;;;5046105;28;20459;-81
2022/10/08 07:53:21;;;;;;;42.33;39.80;;;16.90;77.00;;;;;;5036558;28;20503;-80
2022/10/08 07:55:48;;;;;;;29.57;27.90;;;16.90;77.00;;;;;;5040331;28;20523;-81
2022/10/08 07:58:15;;;;;;;27.70;26.00;;;17.00;76.10;;;;;;5047005;28;20553;-81
2022/10/08 08:00:42;;;;;;;30.03;27.90;;;16.90;74.30;;;;;;5048038;28;20476;-81
2022/10/08 08:03:13;;;;;;;31.83;30.07;;;17.00;73.70;;;;;;5048871;28;20519;-76
2022/10/08 08:05:40;;;;;;;36.23;34.03;;;16.90;74.50;;;;;;5041154;28;20468;-78
2022/10/08 08:08:10;;;;;;;30.67;28.57;;;17.00;74.80;;;;;;5030277;28;20539;-79
2022/10/08 08:10:36;;;;;;;28.03;26.33;;;17.20;74.80;;;;;;5037872;28;20467;-78
2022/10/08 08:13:03;;;;;;;28.90;27.37;;;17.30;74.30;;;;;;5030916;28;20884;-79
2022/10/08 08:15:30;;;;;;;34.23;32.37;;;17.30;74.50;;;;;;5036050;28;20817;-79
2022/10/08 08:17:57;;;;;;;29.77;28.00;;;17.10;75.40;;;;;;5031074;28;20468;-79
2022/10/08 08:20:24;;;;;;;32.23;30.00;;;17.10;75.50;;;;;;5042136;28;20456;-79
2022/10/08 08:22:51;;;;;;;37.60;35.43;;;17.00;76.00;;;;;;5040548;28;21107;-78
2022/10/08 08:25:19;;;;;;;29.00;27.20;;;16.80;76.80;;;;;;5043354;28;20470;-78
2022/10/08 08:27:46;;;;;;;36.40;34.60;;;16.90;76.40;;;;;;5045850;28;20448;-79
2022/10/08 08:30:13;;;;;;;30.40;28.50;;;16.90;74.10;;;;;;5040732;28;20546;-79
2022/10/08 08:32:40;;;;;;;41.97;39.60;;;17.00;72.50;;;;;;5040625;28;20466;-78
2022/10/08 08:35:07;;;;;;;45.87;43.03;;;17.00;73.10;;;;;;5043793;28;20933;-79
2022/10/08 08:37:34;;;;;;;38.20;36.30;;;17.10;72.80;;;;;;5034659;28;20464;-79
2022/10/08 08:40:01;;;;;;;32.83;30.80;;;17.00;72.40;;;;;;5034210;28;20578;-79
2022/10/08 08:42:55;;;;;;;37.73;35.50;;;16.90;71.70;;;;;;5034611;28;20645;-79
2022/10/08 08:45:28;;;;;;;30.33;28.50;;;17.00;71.40;;;;;;5025315;28;20471;-79
2022/10/08 08:48:01;;;;;;;47.00;44.40;;;17.00;71.00;;;;;;5034450;28;20460;-79
2022/10/08 08:50:32;;;;;;;39.93;37.63;;;17.00;70.40;;;;;;5033805;28;20486;-78
2022/10/08 08:52:59;;;;;;;29.50;27.77;;;17.20;69.50;;;;;;5045959;28;20450;-78
2022/10/08 08:55:34;;;;;;;41.27;38.90;;;17.30;69.00;;;;;;5052752;28;20944;-78
2022/10/08 08:58:09;;;;;;;39.00;36.57;;;17.20;68.60;;;;;;5053007;28;20460;-78
2022/10/08 09:00:41;;;;;;;39.10;36.80;;;17.20;68.30;;;;;;5053965;28;20469;-78
2022/10/08 09:03:18;;;;;;;45.90;43.20;;;17.20;67.60;;;;;;5037281;28;20561;-78
2022/10/08 09:05:48;;;;;;;43.40;40.47;;;17.10;68.30;;;;;;5046214;28;20936;-78
2022/10/08 09:08:18;;;;;;;30.00;28.33;;;17.00;68.20;;;;;;5052373;28;20550;-78
2022/10/08 09:10:52;;;;;;;32.53;30.63;;;17.20;67.40;;;;;;5052441;28;20462;-78
2022/10/08 09:13:24;;;;;;;38.33;36.03;;;17.40;67.40;;;;;;5035400;28;20477;-78
2022/10/08 09:15:54;;;;;;;32.57;30.50;;;17.60;66.30;;;;;;5035369;28;20953;-78
2022/10/08 09:18:21;;;;;;;31.83;29.73;;;17.50;66.30;;;;;;5032283;28;20522;-78
2022/10/08 09:20:48;;;;;;;33.67;31.70;;;17.50;66.50;;;;;;5042341;28;20461;-78
2022/10/08 09:23:18;;;;;;;36.80;34.60;;;17.50;66.20;;;;;;5050963;28;20510;-78
2022/10/08 09:25:49;;;;;;;27.97;26.23;;;17.40;65.70;;;;;;5052264;28;20455;-78
2022/10/08 09:28:40;;;;;;;46.57;43.83;;;17.20;66.40;;;;;;5052456;28;20458;-78
2022/10/08 09:31:29;;;;;;;29.93;28.07;;;17.30;66.40;;;;;;5037509;28;20466;-78
2022/10/08 09:33:59;;;;;;;30.40;28.37;;;17.50;66.50;;;;;;5029213;28;20491;-78
2022/10/08 09:36:37;;;;;;;30.57;28.50;;;17.70;65.90;;;;;;5032657;28;20455;-78
2022/10/08 09:39:07;;;;;;;44.90;42.10;;;17.60;65.10;;;;;;5037219;28;20465;-78
2022/10/08 09:41:34;;;;;;;33.67;30.67;;;17.70;65.40;;;;;;5053081;28;20527;-85
2022/10/08 09:44:15;;;;;;;27.70;26.30;;;17.80;65.00;;;;;;5053271;28;20566;-80
2022/10/08 09:46:42;;;;;;;45.37;42.87;;;17.70;64.70;;;;;;5047191;28;20931;-77
2022/10/08 09:49:27;;;;;;;38.60;36.40;;;17.80;64.80;;;;;;5034445;28;20463;-77
2022/10/08 09:51:56;;;;;;;28.57;26.87;;;17.90;64.50;;;;;;5043878;28;20947;-77
2022/10/08 09:54:27;;;;;;;33.43;31.60;;;18.20;64.40;;;;;;5047519;28;20478;-77
2022/10/08 09:56:57;;;;;;;28.43;26.70;;;18.20;63.70;;;;;;5035805;28;20535;-77
2022/10/08 09:59:30;;;;;;;44.57;42.13;;;18.00;63.20;;;;;;5041815;28;20457;-77
2022/10/08 10:01:58;;;;;;;30.37;28.20;;;17.60;64.00;;;;;;5039423;28;20463;-77
2022/10/08 10:04:33;;;;;;;32.60;30.60;;;17.50;64.50;;;;;;5046802;28;20578;-77
2022/10/08 10:07:01;;;;;;;29.13;26.83;;;17.70;64.00;;;;;;5043226;28;20462;-77
2022/10/08 10:09:40;;;;;;;34.73;32.17;;;17.70;63.00;;;;;;5032479;28;20873;-77
2022/10/08 10:12:17;;;;;;;28.37;26.50;;;17.50;63.90;;;;;;5035932;28;21083;-77
2022/10/08 10:14:50;;;;;;;37.97;35.70;;;17.50;63.90;;;;;;5042287;28;20485;-77
2022/10/08 10:17:29;;;;;;;35.97;33.97;;;17.60;64.30;;;;;;5047635;28;20949;-77
2022/10/08 10:20:00;;;;;;;28.87;26.93;;;17.50;63.70;;;;;;5040012;28;20458;-77
2022/10/08 10:22:33;;;;;;;34.50;32.50;;;17.50;64.30;;;;;;5034202;28;20456;-77
2022/10/08 10:25:06;;;;;;;42.87;40.27;;;17.50;63.70;;;;;;5036624;28;20489;-77
2022/10/08 10:27:36;;;;;;;32.23;30.50;;;17.50;63.70;;;;;;5041526;28;20895;-77
2022/10/08 10:30:30;;;;;;;;;;;;;;;;;;;;;
2022/10/08 10:33:03;;;;;;;36.10;33.60;;;17.20;64.40;;;;;;5043858;28;20996;-77
2022/10/08 10:35:32;;;;;;;36.43;34.53;;;17.40;63.90;;;;;;5045400;28;20971;-77
2022/10/08 10:38:07;;;;;;;33.13;30.63;;;17.50;63.70;;;;;;5038600;28;20482;-77
2022/10/08 10:40:42;;;;;;;28.27;26.67;;;17.50;63.20;;;;;;5033531;28;20454;-77
2022/10/08 10:43:49;;;;;;;34.77;32.73;;;17.40;63.30;;;;;;5037814;28;20567;-77
2022/10/08 10:46:25;;;;;;;36.20;34.17;;;17.40;63.90;;;;;;4979584;28;20454;-78
2022/10/08 10:48:51;;;;;;;43.27;40.47;;;17.40;64.20;;;;;;5034972;28;20516;-78
2022/10/08 10:51:40;;;;;;;29.13;27.23;;;17.60;63.70;;;;;;5041221;28;20459;-77
2022/10/08 10:54:21;;;;;;;37.60;35.27;;;17.70;63.40;;;;;;5036796;28;20475;-80
2022/10/08 10:56:55;;;;;;;35.90;33.67;;;17.80;62.60;;;;;;5042337;28;20538;-78
2022/10/08 10:59:43;;;;;;;35.47;33.23;;;17.70;62.20;;;;;;5041352;28;20949;-80
2022/10/08 11:02:19;;;;;;;35.20;32.90;;;17.70;61.70;;;;;;5049481;28;20487;-76
2022/10/08 11:04:54;;;;;;;28.80;26.90;;;17.80;61.20;;;;;;5047825;28;20573;-79
2022/10/08 11:07:40;;;;;;;29.00;27.20;;;17.80;60.80;;;;;;5035579;28;20455;-80
2022/10/08 11:10:18;;;;;;;29.10;27.00;;;17.70;60.80;;;;;;5050964;28;20487;-79
2022/10/08 11:12:52;;;;;;;41.93;39.43;;;17.30;61.60;;;;;;5059248;28;20452;-78
2022/10/08 11:15:29;;;;;;;31.90;30.10;;;17.50;61.80;;;;;;5052099;28;20515;-79
2022/10/08 11:18:13;;;;;;;30.23;28.60;;;17.80;61.50;;;;;;5054601;28;20474;-76
2022/10/08 11:20:51;;;;;;;41.40;38.60;;;17.80;59.60;;;;;;5059392;28;20463;-79
2022/10/08 11:23:33;;;;;;;38.17;36.07;;;17.80;59.80;;;;;;5051406;28;20543;-76
2022/10/08 11:26:05;;;;;;;29.60;28.00;;;17.80;59.60;;;;;;5042012;28;20524;-76
2022/10/08 11:28:44;;;;;;;32.53;30.63;;;17.70;59.50;;;;;;5040512;28;20515;-76
2022/10/08 11:31:24;;;;;;;46.90;43.97;;;17.70;60.00;;;;;;5041928;28;20853;-76
2022/10/08 11:33:56;;;;;;;44.27;41.63;;;17.80;60.10;;;;;;5045356;28;20480;-75
2022/10/08 11:36:33;;;;;;;36.00;33.90;;;18.00;59.20;;;;;;5044422;28;20494;-77
2022/10/08 11:39:06;;;;;;;28.37;26.60;;;17.90;58.50;;;;;;5034731;28;20452;-78
2022/10/08 11:41:40;;;;;;;35.10;32.93;;;17.70;58.60;;;;;;5040296;28;20912;-78
2022/10/08 11:44:11;;;;;;;34.07;31.97;;;17.70;60.00;;;;;;5038395;28;20516;-78
2022/10/08 11:46:38;;;;;;;39.53;37.40;;;17.90;59.70;;;;;;5046168;28;20473;-77
2022/10/08 11:49:57;;;;;;;32.63;30.67;;;18.10;57.90;;;;;;5040354;28;20460;-78
2022/10/08 11:52:30;;;;;;;32.63;30.37;;;18.20;57.80;;;;;;5000736;28;20443;-76
2022/10/08 11:54:59;;;;;;;41.57;38.63;;;18.10;58.30;;;;;;5040304;28;20471;-75
2022/10/08 11:57:33;;;;;;;34.63;31.87;;;18.00;58.80;;;;;;5038468;28;20472;-76
2022/10/08 12:00:02;;;;;;;42.03;38.23;;;18.10;58.90;;;;;;5032500;28;20463;-77
2022/10/08 12:02:31;;;;;;;31.03;29.10;;;18.20;58.80;;;;;;5034826;28;20849;-75
2022/10/08 12:05:17;;;;;;;28.63;27.27;;;18.10;58.60;;;;;;5034775;28;20487;-80
2022/10/08 12:07:50;;;;;;;36.50;34.00;;;17.90;59.00;;;;;;5041315;28;20459;-81
2022/10/08 12:10:31;;;;;;;32.97;31.13;;;17.70;59.30;;;;;;5040584;28;20546;-80
2022/10/08 12:13:26;;;;;;;29.77;28.17;;;17.40;59.80;;;;;;5041251;28;20450;-80
2022/10/08 12:16:05;;;;;;;41.17;38.97;;;17.40;59.20;;;;;;5038398;28;20555;-80
2022/10/08 12:18:50;;;;;;;39.57;37.57;;;17.40;58.50;;;;;;5043252;28;20524;-81
2022/10/08 12:21:55;;;;;;;31.63;30.00;;;17.50;58.30;;;;;;5052740;28;20462;-81
2022/10/08 12:24:55;;;;;;;32.60;30.63;;;17.70;57.60;;;;;;5051916;28;20570;-83
2022/10/08 12:27:36;;;;;;;31.07;29.47;;;17.80;57.30;;;;;;5040170;28;20474;-82
2022/10/08 12:30:06;;;;;;;35.43;33.43;;;17.70;58.00;;;;;;5050023;28;20546;-82
2022/10/08 12:32:52;;;;;;;42.47;40.07;;;17.70;59.40;;;;;;5046164;28;20483;-80
2022/10/08 12:35:22;;;;;;;31.03;29.23;;;17.60;61.00;;;;;;5030979;28;20534;-79
2022/10/08 12:38:18;;;;;;;28.70;27.20;;;17.50;61.40;;;;;;5048748;28;20451;-80
2022/10/08 12:40:53;;;;;;;30.27;28.33;;;17.70;61.30;;;;;;5050240;28;20546;-80
2022/10/08 12:43:27;;;;;;;31.73;29.73;;;17.60;62.20;;;;;;5045875;28;20599;-80
2022/10/08 12:46:02;;;;;;;43.90;41.53;;;17.60;62.10;;;;;;5035721;28;20557;-78
2022/10/08 12:48:39;;;;;;;31.70;29.43;;;17.50;62.50;;;;;;5034121;28;20935;-80
2022/10/08 12:51:23;;;;;;;30.87;29.00;;;17.70;62.40;;;;;;5036786;28;20460;-79